sensor_id;sensor_type;location;lat;lon;timestamp;P1;durP1;ratioP1;P2;durP2;ratioP2
72156;SDS011;60035;52.122;5.406;2023-06-04T00:01:05;4.22;;;1.33;;
72156;SDS011;60035;52.122;5.406;2023-06-04T00:03:42;4.25;;;1.23;;
72156;SDS011;60035;52.122;5.406;2023-06-04T00:06:09;3.75;;;1.48;;
72156;SDS011;60035;52.122;5.406;2023-06-04T00:08:36;4.05;;;1.70;;
72156;SDS011;60035;52.122;5.406;2023-06-04T00:11:02;4.10;;;1.52;;
72156;SDS011;60035;52.122;5.406;2023-06-04T00:13:29;4.15;;;1.40;;
72156;SDS011;60035;52.122;5.406;2023-06-04T00:15:55;5.07;;;2.00;;
72156;SDS011;60035;52.122;5.406;2023-06-04T00:18:22;4.45;;;1.80;;
72156;SDS011;60035;52.122;5.406;2023-06-04T00:20:48;4.50;;;1.60;;
72156;SDS011;60035;52.122;5.406;2023-06-04T00:23:15;4.97;;;1.70;;
72156;SDS011;60035;52.122;5.406;2023-06-04T00:25:42;2.90;;;1.45;;
72156;SDS011;60035;52.122;5.406;2023-06-04T00:28:08;4.63;;;1.63;;
72156;SDS011;60035;52.122;5.406;2023-06-04T00:30:35;4.80;;;1.33;;
72156;SDS011;60035;52.122;5.406;2023-06-04T00:33:01;5.68;;;1.63;;
72156;SDS011;60035;52.122;5.406;2023-06-04T00:35:28;4.75;;;1.52;;
72156;SDS011;60035;52.122;5.406;2023-06-04T00:37:55;4.70;;;1.35;;
72156;SDS011;60035;52.122;5.406;2023-06-04T00:40:21;3.72;;;1.42;;
72156;SDS011;60035;52.122;5.406;2023-06-04T00:42:48;4.00;;;1.52;;
72156;SDS011;60035;52.122;5.406;2023-06-04T00:45:15;3.83;;;1.42;;
72156;SDS011;60035;52.122;5.406;2023-06-04T00:47:44;3.60;;;1.38;;
72156;SDS011;60035;52.122;5.406;2023-06-04T00:50:11;4.65;;;1.27;;
72156;SDS011;60035;52.122;5.406;2023-06-04T00:52:39;4.15;;;1.83;;
72156;SDS011;60035;52.122;5.406;2023-06-04T00:55:06;4.95;;;1.70;;
72156;SDS011;60035;52.122;5.406;2023-06-04T00:57:34;4.07;;;1.75;;
72156;SDS011;60035;52.122;5.406;2023-06-04T01:00:00;5.70;;;1.98;;
72156;SDS011;60035;52.122;5.406;2023-06-04T01:02:27;4.38;;;1.38;;
72156;SDS011;60035;52.122;5.406;2023-06-04T01:07:31;3.53;;;1.58;;
72156;SDS011;60035;52.122;5.406;2023-06-04T01:09:58;3.47;;;1.42;;
72156;SDS011;60035;52.122;5.406;2023-06-04T01:12:24;4.00;;;1.55;;
72156;SDS011;60035;52.122;5.406;2023-06-04T01:14:51;5.03;;;1.42;;
72156;SDS011;60035;52.122;5.406;2023-06-04T01:28:08;4.50;;;1.70;;
72156;SDS011;60035;52.122;5.406;2023-06-04T01:30:40;4.88;;;1.42;;
72156;SDS011;60035;52.122;5.406;2023-06-04T01:33:13;5.88;;;2.58;;
72156;SDS011;60035;52.122;5.406;2023-06-04T01:35:40;5.60;;;1.67;;
72156;SDS011;60035;52.122;5.406;2023-06-04T01:38:06;6.00;;;1.70;;
72156;SDS011;60035;52.122;5.406;2023-06-04T01:40:33;3.45;;;1.40;;
72156;SDS011;60035;52.122;5.406;2023-06-04T01:43:00;5.95;;;1.65;;
72156;SDS011;60035;52.122;5.406;2023-06-04T01:45:27;6.20;;;1.65;;
72156;SDS011;60035;52.122;5.406;2023-06-04T01:47:54;5.45;;;1.42;;
72156;SDS011;60035;52.122;5.406;2023-06-04T01:50:22;4.25;;;1.65;;
72156;SDS011;60035;52.122;5.406;2023-06-04T01:52:49;4.10;;;1.42;;
72156;SDS011;60035;52.122;5.406;2023-06-04T01:55:16;4.68;;;1.45;;
72156;SDS011;60035;52.122;5.406;2023-06-04T01:57:43;6.38;;;1.85;;
72156;SDS011;60035;52.122;5.406;2023-06-04T02:00:11;5.32;;;1.52;;
72156;SDS011;60035;52.122;5.406;2023-06-04T02:02:38;6.20;;;1.85;;
72156;SDS011;60035;52.122;5.406;2023-06-04T02:05:07;4.40;;;1.77;;
72156;SDS011;60035;52.122;5.406;2023-06-04T02:07:35;5.32;;;2.17;;
72156;SDS011;60035;52.122;5.406;2023-06-04T02:10:11;7.57;;;2.28;;
72156;SDS011;60035;52.122;5.406;2023-06-04T02:12:39;5.82;;;1.73;;
72156;SDS011;60035;52.122;5.406;2023-06-04T02:15:09;8.38;;;1.95;;
72156;SDS011;60035;52.122;5.406;2023-06-04T02:17:36;5.18;;;1.92;;
72156;SDS011;60035;52.122;5.406;2023-06-04T02:20:09;3.92;;;1.58;;
72156;SDS011;60035;52.122;5.406;2023-06-04T02:22:36;5.05;;;1.73;;
72156;SDS011;60035;52.122;5.406;2023-06-04T02:25:03;5.68;;;1.70;;
72156;SDS011;60035;52.122;5.406;2023-06-04T02:27:31;4.00;;;1.83;;
72156;SDS011;60035;52.122;5.406;2023-06-04T02:29:57;4.50;;;1.67;;
72156;SDS011;60035;52.122;5.406;2023-06-04T02:32:24;4.38;;;2.10;;
72156;SDS011;60035;52.122;5.406;2023-06-04T02:34:51;5.53;;;1.85;;
72156;SDS011;60035;52.122;5.406;2023-06-04T02:37:17;5.25;;;1.80;;
72156;SDS011;60035;52.122;5.406;2023-06-04T02:39:44;4.82;;;1.98;;
72156;SDS011;60035;52.122;5.406;2023-06-04T02:42:10;4.95;;;1.73;;
72156;SDS011;60035;52.122;5.406;2023-06-04T02:44:37;4.28;;;1.85;;
72156;SDS011;60035;52.122;5.406;2023-06-04T02:47:03;7.65;;;1.75;;
72156;SDS011;60035;52.122;5.406;2023-06-04T02:49:30;7.32;;;2.50;;
72156;SDS011;60035;52.122;5.406;2023-06-04T02:51:57;4.13;;;1.50;;
72156;SDS011;60035;52.122;5.406;2023-06-04T02:54:23;4.97;;;1.73;;
72156;SDS011;60035;52.122;5.406;2023-06-04T02:56:50;5.07;;;1.67;;
72156;SDS011;60035;52.122;5.406;2023-06-04T02:59:17;5.53;;;2.10;;
72156;SDS011;60035;52.122;5.406;2023-06-04T03:01:44;4.45;;;1.92;;
72156;SDS011;60035;52.122;5.406;2023-06-04T03:04:11;5.88;;;1.80;;
72156;SDS011;60035;52.122;5.406;2023-06-04T03:06:41;6.30;;;1.98;;
72156;SDS011;60035;52.122;5.406;2023-06-04T03:09:12;6.55;;;1.77;;
72156;SDS011;60035;52.122;5.406;2023-06-04T03:11:39;5.28;;;1.83;;
72156;SDS011;60035;52.122;5.406;2023-06-04T03:14:06;6.97;;;2.03;;
72156;SDS011;60035;52.122;5.406;2023-06-04T03:16:32;5.35;;;1.83;;
72156;SDS011;60035;52.122;5.406;2023-06-04T03:18:59;4.88;;;1.88;;
72156;SDS011;60035;52.122;5.406;2023-06-04T03:21:26;6.65;;;1.75;;
72156;SDS011;60035;52.122;5.406;2023-06-04T03:23:55;6.65;;;2.30;;
72156;SDS011;60035;52.122;5.406;2023-06-04T03:26:22;8.35;;;3.08;;
72156;SDS011;60035;52.122;5.406;2023-06-04T03:28:48;5.40;;;1.92;;
72156;SDS011;60035;52.122;5.406;2023-06-04T03:31:15;5.32;;;1.92;;
72156;SDS011;60035;52.122;5.406;2023-06-04T03:33:41;4.07;;;1.67;;
72156;SDS011;60035;52.122;5.406;2023-06-04T03:36:08;8.05;;;2.25;;
72156;SDS011;60035;52.122;5.406;2023-06-04T03:38:34;6.38;;;2.10;;
72156;SDS011;60035;52.122;5.406;2023-06-04T03:41:03;4.35;;;1.98;;
72156;SDS011;60035;52.122;5.406;2023-06-04T03:43:30;5.95;;;2.42;;
72156;SDS011;60035;52.122;5.406;2023-06-04T03:45:56;6.00;;;1.88;;
72156;SDS011;60035;52.122;5.406;2023-06-04T03:48:23;7.78;;;2.35;;
72156;SDS011;60035;52.122;5.406;2023-06-04T03:50:49;6.75;;;2.15;;
72156;SDS011;60035;52.122;5.406;2023-06-04T03:53:16;7.65;;;2.00;;
72156;SDS011;60035;52.122;5.406;2023-06-04T03:55:43;6.43;;;2.00;;
72156;SDS011;60035;52.122;5.406;2023-06-04T03:58:09;7.05;;;2.30;;
72156;SDS011;60035;52.122;5.406;2023-06-04T04:00:37;7.07;;;2.30;;
72156;SDS011;60035;52.122;5.406;2023-06-04T04:03:04;5.78;;;2.40;;
72156;SDS011;60035;52.122;5.406;2023-06-04T04:05:30;8.20;;;2.08;;
72156;SDS011;60035;52.122;5.406;2023-06-04T04:07:57;6.07;;;2.05;;
72156;SDS011;60035;52.122;5.406;2023-06-04T04:10:23;5.88;;;1.90;;
72156;SDS011;60035;52.122;5.406;2023-06-04T04:12:50;9.15;;;2.13;;
72156;SDS011;60035;52.122;5.406;2023-06-04T04:15:17;7.05;;;1.98;;
72156;SDS011;60035;52.122;5.406;2023-06-04T04:17:44;7.10;;;2.28;;
72156;SDS011;60035;52.122;5.406;2023-06-04T04:20:10;8.20;;;2.22;;
72156;SDS011;60035;52.122;5.406;2023-06-04T04:22:40;10.38;;;2.13;;
72156;SDS011;60035;52.122;5.406;2023-06-04T04:25:08;5.28;;;2.20;;
72156;SDS011;60035;52.122;5.406;2023-06-04T04:27:35;7.22;;;2.15;;
72156;SDS011;60035;52.122;5.406;2023-06-04T04:30:05;9.00;;;2.30;;
72156;SDS011;60035;52.122;5.406;2023-06-04T04:32:32;7.35;;;2.40;;
72156;SDS011;60035;52.122;5.406;2023-06-04T04:34:59;6.88;;;2.45;;
72156;SDS011;60035;52.122;5.406;2023-06-04T04:37:26;7.15;;;2.55;;
72156;SDS011;60035;52.122;5.406;2023-06-04T04:39:53;9.00;;;2.55;;
72156;SDS011;60035;52.122;5.406;2023-06-04T04:42:19;6.53;;;2.05;;
72156;SDS011;60035;52.122;5.406;2023-06-04T04:44:46;6.13;;;2.20;;
72156;SDS011;60035;52.122;5.406;2023-06-04T04:47:17;7.10;;;1.90;;
72156;SDS011;60035;52.122;5.406;2023-06-04T04:49:44;8.15;;;2.28;;
72156;SDS011;60035;52.122;5.406;2023-06-04T04:52:13;7.15;;;2.10;;
72156;SDS011;60035;52.122;5.406;2023-06-04T04:54:40;6.70;;;2.50;;
72156;SDS011;60035;52.122;5.406;2023-06-04T04:57:07;7.68;;;2.53;;
72156;SDS011;60035;52.122;5.406;2023-06-04T04:59:39;6.30;;;2.40;;
72156;SDS011;60035;52.122;5.406;2023-06-04T05:02:06;6.20;;;2.00;;
72156;SDS011;60035;52.122;5.406;2023-06-04T05:04:33;8.55;;;2.70;;
72156;SDS011;60035;52.122;5.406;2023-06-04T05:07:00;6.47;;;2.08;;
72156;SDS011;60035;52.122;5.406;2023-06-04T05:09:26;7.47;;;2.47;;
72156;SDS011;60035;52.122;5.406;2023-06-04T05:11:53;7.60;;;2.53;;
72156;SDS011;60035;52.122;5.406;2023-06-04T05:14:19;7.20;;;2.70;;
72156;SDS011;60035;52.122;5.406;2023-06-04T05:16:46;8.35;;;2.35;;
72156;SDS011;60035;52.122;5.406;2023-06-04T05:19:18;9.35;;;2.33;;
72156;SDS011;60035;52.122;5.406;2023-06-04T05:21:45;8.82;;;2.20;;
72156;SDS011;60035;52.122;5.406;2023-06-04T05:24:11;8.40;;;2.63;;
72156;SDS011;60035;52.122;5.406;2023-06-04T05:26:38;8.02;;;2.03;;
72156;SDS011;60035;52.122;5.406;2023-06-04T05:29:05;7.85;;;2.45;;
72156;SDS011;60035;52.122;5.406;2023-06-04T05:31:33;7.53;;;2.38;;
72156;SDS011;60035;52.122;5.406;2023-06-04T05:34:01;5.88;;;1.92;;
72156;SDS011;60035;52.122;5.406;2023-06-04T05:36:28;9.38;;;2.45;;
72156;SDS011;60035;52.122;5.406;2023-06-04T05:38:56;7.93;;;2.38;;
72156;SDS011;60035;52.122;5.406;2023-06-04T05:43:54;9.30;;;2.50;;
72156;SDS011;60035;52.122;5.406;2023-06-04T05:46:21;6.03;;;2.33;;
72156;SDS011;60035;52.122;5.406;2023-06-04T05:48:48;9.18;;;2.67;;
72156;SDS011;60035;52.122;5.406;2023-06-04T05:51:15;8.45;;;3.17;;
72156;SDS011;60035;52.122;5.406;2023-06-04T05:53:41;8.52;;;2.58;;
72156;SDS011;60035;52.122;5.406;2023-06-04T05:56:08;9.63;;;2.42;;
72156;SDS011;60035;52.122;5.406;2023-06-04T05:58:34;5.85;;;2.30;;
72156;SDS011;60035;52.122;5.406;2023-06-04T06:01:01;7.78;;;2.15;;
72156;SDS011;60035;52.122;5.406;2023-06-04T06:03:27;6.63;;;2.25;;
72156;SDS011;60035;52.122;5.406;2023-06-04T06:05:54;10.82;;;2.53;;
72156;SDS011;60035;52.122;5.406;2023-06-04T06:08:23;6.15;;;2.22;;
72156;SDS011;60035;52.122;5.406;2023-06-04T06:10:49;8.18;;;2.33;;
72156;SDS011;60035;52.122;5.406;2023-06-04T06:13:16;7.90;;;2.05;;
72156;SDS011;60035;52.122;5.406;2023-06-04T06:15:42;7.15;;;2.40;;
72156;SDS011;60035;52.122;5.406;2023-06-04T06:18:09;9.82;;;2.13;;
72156;SDS011;60035;52.122;5.406;2023-06-04T06:20:36;7.97;;;2.20;;
72156;SDS011;60035;52.122;5.406;2023-06-04T06:23:06;7.65;;;2.40;;
72156;SDS011;60035;52.122;5.406;2023-06-04T06:25:33;6.93;;;2.20;;
72156;SDS011;60035;52.122;5.406;2023-06-04T06:27:59;9.20;;;2.22;;
72156;SDS011;60035;52.122;5.406;2023-06-04T06:30:26;6.78;;;2.10;;
72156;SDS011;60035;52.122;5.406;2023-06-04T06:32:53;6.75;;;1.98;;
72156;SDS011;60035;52.122;5.406;2023-06-04T06:35:22;8.88;;;1.95;;
72156;SDS011;60035;52.122;5.406;2023-06-04T06:37:48;6.10;;;2.03;;
72156;SDS011;60035;52.122;5.406;2023-06-04T06:40:15;7.00;;;1.90;;
72156;SDS011;60035;52.122;5.406;2023-06-04T06:42:41;6.90;;;2.10;;
72156;SDS011;60035;52.122;5.406;2023-06-04T06:45:08;6.22;;;2.03;;
72156;SDS011;60035;52.122;5.406;2023-06-04T06:47:35;6.45;;;2.17;;
72156;SDS011;60035;52.122;5.406;2023-06-04T06:50:02;7.53;;;1.92;;
72156;SDS011;60035;52.122;5.406;2023-06-04T06:52:28;5.82;;;1.90;;
72156;SDS011;60035;52.122;5.406;2023-06-04T06:54:58;6.03;;;1.77;;
72156;SDS011;60035;52.122;5.406;2023-06-04T06:57:24;6.35;;;1.75;;
72156;SDS011;60035;52.122;5.406;2023-06-04T06:59:52;5.65;;;2.10;;
72156;SDS011;60035;52.122;5.406;2023-06-04T07:02:20;5.47;;;1.90;;
72156;SDS011;60035;52.122;5.406;2023-06-04T07:04:47;5.75;;;2.10;;
72156;SDS011;60035;52.122;5.406;2023-06-04T07:07:13;7.13;;;2.05;;
72156;SDS011;60035;52.122;5.406;2023-06-04T07:09:43;5.05;;;1.80;;
72156;SDS011;60035;52.122;5.406;2023-06-04T07:12:10;5.25;;;1.50;;
72156;SDS011;60035;52.122;5.406;2023-06-04T07:14:37;6.53;;;1.92;;
72156;SDS011;60035;52.122;5.406;2023-06-04T07:17:03;6.25;;;1.80;;
72156;SDS011;60035;52.122;5.406;2023-06-04T07:19:30;7.47;;;1.83;;
72156;SDS011;60035;52.122;5.406;2023-06-04T07:21:57;6.18;;;1.73;;
72156;SDS011;60035;52.122;5.406;2023-06-04T07:24:23;6.38;;;1.80;;
72156;SDS011;60035;52.122;5.406;2023-06-04T07:26:50;4.78;;;1.52;;
72156;SDS011;60035;52.122;5.406;2023-06-04T07:29:17;8.50;;;2.22;;
72156;SDS011;60035;52.122;5.406;2023-06-04T07:31:44;4.53;;;1.63;;
72156;SDS011;60035;52.122;5.406;2023-06-04T07:34:10;6.10;;;1.80;;
72156;SDS011;60035;52.122;5.406;2023-06-04T07:36:37;7.15;;;2.20;;
72156;SDS011;60035;52.122;5.406;2023-06-04T07:39:04;6.72;;;1.83;;
72156;SDS011;60035;52.122;5.406;2023-06-04T07:41:33;6.80;;;1.67;;
72156;SDS011;60035;52.122;5.406;2023-06-04T07:44:00;5.13;;;1.55;;
72156;SDS011;60035;52.122;5.406;2023-06-04T07:46:27;5.10;;;1.83;;
72156;SDS011;60035;52.122;5.406;2023-06-04T07:48:53;6.47;;;2.00;;
72156;SDS011;60035;52.122;5.406;2023-06-04T07:51:20;5.43;;;1.63;;
72156;SDS011;60035;52.122;5.406;2023-06-04T07:53:47;4.28;;;1.38;;
72156;SDS011;60035;52.122;5.406;2023-06-04T07:56:13;5.05;;;1.25;;
72156;SDS011;60035;52.122;5.406;2023-06-04T07:58:41;4.25;;;1.38;;
72156;SDS011;60035;52.122;5.406;2023-06-04T08:01:08;5.55;;;1.50;;
72156;SDS011;60035;52.122;5.406;2023-06-04T08:03:35;5.15;;;1.40;;
72156;SDS011;60035;52.122;5.406;2023-06-04T08:06:02;6.72;;;1.65;;
72156;SDS011;60035;52.122;5.406;2023-06-04T08:08:30;6.00;;;1.30;;
72156;SDS011;60035;52.122;5.406;2023-06-04T08:11:01;4.28;;;1.50;;
72156;SDS011;60035;52.122;5.406;2023-06-04T08:13:28;7.38;;;1.40;;
72156;SDS011;60035;52.122;5.406;2023-06-04T08:15:55;4.32;;;1.35;;
72156;SDS011;60035;52.122;5.406;2023-06-04T08:18:21;4.65;;;1.40;;
72156;SDS011;60035;52.122;5.406;2023-06-04T08:20:48;6.18;;;1.70;;
72156;SDS011;60035;52.122;5.406;2023-06-04T08:23:14;5.57;;;1.38;;
72156;SDS011;60035;52.122;5.406;2023-06-04T08:25:44;5.05;;;1.80;;
72156;SDS011;60035;52.122;5.406;2023-06-04T08:28:13;5.25;;;1.40;;
72156;SDS011;60035;52.122;5.406;2023-06-04T08:30:40;5.75;;;1.50;;
72156;SDS011;60035;52.122;5.406;2023-06-04T08:33:07;5.40;;;1.88;;
72156;SDS011;60035;52.122;5.406;2023-06-04T08:35:39;5.70;;;1.38;;
72156;SDS011;60035;52.122;5.406;2023-06-04T08:38:05;8.45;;;1.55;;
72156;SDS011;60035;52.122;5.406;2023-06-04T08:40:32;5.10;;;1.50;;
72156;SDS011;60035;52.122;5.406;2023-06-04T08:43:01;4.30;;;1.50;;
72156;SDS011;60035;52.122;5.406;2023-06-04T08:45:28;3.90;;;1.50;;
72156;SDS011;60035;52.122;5.406;2023-06-04T08:47:59;6.25;;;1.70;;
72156;SDS011;60035;52.122;5.406;2023-06-04T08:50:26;3.60;;;1.55;;
72156;SDS011;60035;52.122;5.406;2023-06-04T08:52:53;7.57;;;1.80;;
72156;SDS011;60035;52.122;5.406;2023-06-04T08:55:22;7.65;;;1.50;;
72156;SDS011;60035;52.122;5.406;2023-06-04T08:57:49;3.92;;;1.30;;
72156;SDS011;60035;52.122;5.406;2023-06-04T09:00:17;3.90;;;1.33;;
72156;SDS011;60035;52.122;5.406;2023-06-04T09:02:44;5.88;;;1.50;;
72156;SDS011;60035;52.122;5.406;2023-06-04T09:05:16;3.92;;;1.25;;
72156;SDS011;60035;52.122;5.406;2023-06-04T09:07:48;5.63;;;1.25;;
72156;SDS011;60035;52.122;5.406;2023-06-04T09:10:20;4.45;;;1.42;;
72156;SDS011;60035;52.122;5.406;2023-06-04T09:12:51;4.95;;;2.08;;
72156;SDS011;60035;52.122;5.406;2023-06-04T09:15:18;5.90;;;1.70;;
72156;SDS011;60035;52.122;5.406;2023-06-04T09:17:44;5.03;;;1.55;;
72156;SDS011;60035;52.122;5.406;2023-06-04T09:20:21;4.72;;;1.30;;
72156;SDS011;60035;52.122;5.406;2023-06-04T09:22:49;5.05;;;1.38;;
72156;SDS011;60035;52.122;5.406;2023-06-04T09:25:22;6.20;;;1.15;;
72156;SDS011;60035;52.122;5.406;2023-06-04T09:27:54;4.15;;;1.50;;
72156;SDS011;60035;52.122;5.406;2023-06-04T09:30:22;4.65;;;1.35;;
72156;SDS011;60035;52.122;5.406;2023-06-04T09:32:49;6.15;;;1.25;;
72156;SDS011;60035;52.122;5.406;2023-06-04T09:35:17;8.95;;;1.60;;
72156;SDS011;60035;52.122;5.406;2023-06-04T09:37:54;5.15;;;1.42;;
72156;SDS011;60035;52.122;5.406;2023-06-04T09:40:22;10.65;;;1.45;;
72156;SDS011;60035;52.122;5.406;2023-06-04T09:42:50;5.60;;;1.30;;
72156;SDS011;60035;52.122;5.406;2023-06-04T09:47:56;3.17;;;1.20;;
72156;SDS011;60035;52.122;5.406;2023-06-04T09:50:25;4.43;;;1.30;;
72156;SDS011;60035;52.122;5.406;2023-06-04T09:52:52;5.43;;;1.30;;
72156;SDS011;60035;52.122;5.406;2023-06-04T09:55:19;4.38;;;1.40;;
72156;SDS011;60035;52.122;5.406;2023-06-04T09:57:48;4.97;;;1.35;;
72156;SDS011;60035;52.122;5.406;2023-06-04T10:00:17;5.45;;;1.25;;
72156;SDS011;60035;52.122;5.406;2023-06-04T10:02:45;4.32;;;1.13;;
72156;SDS011;60035;52.122;5.406;2023-06-04T10:05:13;3.15;;;0.90;;
72156;SDS011;60035;52.122;5.406;2023-06-04T10:07:45;4.70;;;1.20;;
72156;SDS011;60035;52.122;5.406;2023-06-04T10:10:16;6.20;;;1.23;;
72156;SDS011;60035;52.122;5.406;2023-06-04T10:12:45;3.70;;;1.25;;
72156;SDS011;60035;52.122;5.406;2023-06-04T10:15:16;5.78;;;1.10;;
72156;SDS011;60035;52.122;5.406;2023-06-04T10:17:43;3.92;;;1.10;;
72156;SDS011;60035;52.122;5.406;2023-06-04T10:20:11;4.47;;;1.20;;
72156;SDS011;60035;52.122;5.406;2023-06-04T10:22:38;3.60;;;1.30;;
72156;SDS011;60035;52.122;5.406;2023-06-04T10:25:05;5.95;;;1.55;;
72156;SDS011;60035;52.122;5.406;2023-06-04T10:27:32;4.70;;;1.05;;
72156;SDS011;60035;52.122;5.406;2023-06-04T10:30:02;3.78;;;1.05;;
72156;SDS011;60035;52.122;5.406;2023-06-04T10:32:30;4.45;;;1.20;;
72156;SDS011;60035;52.122;5.406;2023-06-04T10:34:57;5.72;;;1.20;;
72156;SDS011;60035;52.122;5.406;2023-06-04T10:37:24;4.82;;;1.00;;
72156;SDS011;60035;52.122;5.406;2023-06-04T10:39:53;4.93;;;1.20;;
72156;SDS011;60035;52.122;5.406;2023-06-04T10:42:21;5.03;;;1.15;;
72156;SDS011;60035;52.122;5.406;2023-06-04T10:44:50;3.83;;;1.27;;
72156;SDS011;60035;52.122;5.406;2023-06-04T10:47:20;4.95;;;1.10;;
72156;SDS011;60035;52.122;5.406;2023-06-04T10:50:06;3.63;;;1.05;;
72156;SDS011;60035;52.122;5.406;2023-06-04T10:52:36;2.67;;;0.90;;
72156;SDS011;60035;52.122;5.406;2023-06-04T10:55:03;5.53;;;1.20;;
72156;SDS011;60035;52.122;5.406;2023-06-04T10:57:31;4.75;;;1.00;;
72156;SDS011;60035;52.122;5.406;2023-06-04T10:59:59;3.97;;;1.00;;
72156;SDS011;60035;52.122;5.406;2023-06-04T11:02:26;2.58;;;0.90;;
72156;SDS011;60035;52.122;5.406;2023-06-04T11:05:03;5.53;;;1.00;;
72156;SDS011;60035;52.122;5.406;2023-06-04T11:07:45;5.05;;;1.15;;
72156;SDS011;60035;52.122;5.406;2023-06-04T11:10:14;17.98;;;1.90;;
72156;SDS011;60035;52.122;5.406;2023-06-04T11:12:46;12.25;;;1.85;;
72156;SDS011;60035;52.122;5.406;2023-06-04T11:15:14;5.30;;;1.13;;
72156;SDS011;60035;52.122;5.406;2023-06-04T11:17:55;4.55;;;1.00;;
72156;SDS011;60035;52.122;5.406;2023-06-04T11:20:24;4.63;;;1.08;;
72156;SDS011;60035;52.122;5.406;2023-06-04T11:25:25;4.47;;;1.20;;
72156;SDS011;60035;52.122;5.406;2023-06-04T11:27:55;6.43;;;1.25;;
72156;SDS011;60035;52.122;5.406;2023-06-04T11:30:24;3.08;;;0.95;;
72156;SDS011;60035;52.122;5.406;2023-06-04T11:32:59;5.97;;;1.35;;
72156;SDS011;60035;52.122;5.406;2023-06-04T11:35:27;4.70;;;1.45;;
72156;SDS011;60035;52.122;5.406;2023-06-04T11:37:54;5.43;;;1.35;;
72156;SDS011;60035;52.122;5.406;2023-06-04T11:40:22;6.72;;;1.10;;
72156;SDS011;60035;52.122;5.406;2023-06-04T11:42:49;3.75;;;1.08;;
72156;SDS011;60035;52.122;5.406;2023-06-04T11:45:17;2.83;;;1.10;;
72156;SDS011;60035;52.122;5.406;2023-06-04T11:47:45;3.00;;;1.10;;
72156;SDS011;60035;52.122;5.406;2023-06-04T11:50:13;2.75;;;1.10;;
72156;SDS011;60035;52.122;5.406;2023-06-04T11:52:41;3.42;;;1.20;;
72156;SDS011;60035;52.122;5.406;2023-06-04T11:55:11;3.47;;;1.23;;
72156;SDS011;60035;52.122;5.406;2023-06-04T12:00:05;8.23;;;1.90;;
72156;SDS011;60035;52.122;5.406;2023-06-04T12:02:36;5.80;;;3.17;;
72156;SDS011;60035;52.122;5.406;2023-06-04T12:05:13;7.95;;;3.72;;
72156;SDS011;60035;52.122;5.406;2023-06-04T12:07:41;4.60;;;1.40;;
72156;SDS011;60035;52.122;5.406;2023-06-04T12:10:08;4.75;;;1.13;;
72156;SDS011;60035;52.122;5.406;2023-06-04T12:12:35;4.00;;;1.30;;
72156;SDS011;60035;52.122;5.406;2023-06-04T12:15:01;5.70;;;1.20;;
72156;SDS011;60035;52.122;5.406;2023-06-04T12:17:30;3.60;;;1.05;;
72156;SDS011;60035;52.122;5.406;2023-06-04T12:19:56;3.20;;;1.25;;
72156;SDS011;60035;52.122;5.406;2023-06-04T12:22:25;2.97;;;1.00;;
72156;SDS011;60035;52.122;5.406;2023-06-04T12:24:53;5.20;;;1.15;;
72156;SDS011;60035;52.122;5.406;2023-06-04T12:27:23;6.15;;;1.20;;
72156;SDS011;60035;52.122;5.406;2023-06-04T12:29:57;3.42;;;1.08;;
72156;SDS011;60035;52.122;5.406;2023-06-04T12:32:28;4.25;;;1.27;;
72156;SDS011;60035;52.122;5.406;2023-06-04T12:34:55;2.25;;;1.00;;
72156;SDS011;60035;52.122;5.406;2023-06-04T12:37:22;4.03;;;1.20;;
72156;SDS011;60035;52.122;5.406;2023-06-04T12:39:51;2.58;;;1.20;;
72156;SDS011;60035;52.122;5.406;2023-06-04T12:42:18;5.53;;;1.30;;
72156;SDS011;60035;52.122;5.406;2023-06-04T12:44:46;4.32;;;0.93;;
72156;SDS011;60035;52.122;5.406;2023-06-04T12:47:13;3.20;;;0.98;;
72156;SDS011;60035;52.122;5.406;2023-06-04T12:49:42;6.75;;;1.40;;
72156;SDS011;60035;52.122;5.406;2023-06-04T12:52:09;4.28;;;1.00;;
72156;SDS011;60035;52.122;5.406;2023-06-04T12:54:35;3.33;;;1.20;;
72156;SDS011;60035;52.122;5.406;2023-06-04T12:57:02;2.85;;;1.15;;
72156;SDS011;60035;52.122;5.406;2023-06-04T12:59:28;5.15;;;1.23;;
72156;SDS011;60035;52.122;5.406;2023-06-04T13:01:55;2.92;;;1.52;;
72156;SDS011;60035;52.122;5.406;2023-06-04T13:04:22;3.88;;;1.13;;
72156;SDS011;60035;52.122;5.406;2023-06-04T13:06:50;5.13;;;1.27;;
72156;SDS011;60035;52.122;5.406;2023-06-04T13:09:25;4.10;;;1.38;;
72156;SDS011;60035;52.122;5.406;2023-06-04T13:11:54;3.58;;;1.00;;
72156;SDS011;60035;52.122;5.406;2023-06-04T13:14:21;5.68;;;1.50;;
72156;SDS011;60035;52.122;5.406;2023-06-04T13:16:47;4.20;;;1.02;;
72156;SDS011;60035;52.122;5.406;2023-06-04T13:19:15;6.10;;;1.10;;
72156;SDS011;60035;52.122;5.406;2023-06-04T13:21:42;3.08;;;1.05;;
72156;SDS011;60035;52.122;5.406;2023-06-04T13:24:09;3.75;;;1.10;;
72156;SDS011;60035;52.122;5.406;2023-06-04T13:26:37;4.80;;;1.20;;
72156;SDS011;60035;52.122;5.406;2023-06-04T13:29:05;3.85;;;1.13;;
72156;SDS011;60035;52.122;5.406;2023-06-04T13:31:32;4.45;;;1.27;;
72156;SDS011;60035;52.122;5.406;2023-06-04T13:33:58;4.22;;;1.33;;
72156;SDS011;60035;52.122;5.406;2023-06-04T13:36:29;5.68;;;1.20;;
72156;SDS011;60035;52.122;5.406;2023-06-04T13:38:56;8.05;;;1.42;;
72156;SDS011;60035;52.122;5.406;2023-06-04T13:41:22;5.65;;;1.13;;
72156;SDS011;60035;52.122;5.406;2023-06-04T13:43:49;4.38;;;1.15;;
72156;SDS011;60035;52.122;5.406;2023-06-04T13:46:15;4.40;;;1.33;;
72156;SDS011;60035;52.122;5.406;2023-06-04T13:48:42;3.75;;;1.17;;
72156;SDS011;60035;52.122;5.406;2023-06-04T13:51:09;4.20;;;1.30;;
72156;SDS011;60035;52.122;5.406;2023-06-04T13:53:35;7.82;;;1.25;;
72156;SDS011;60035;52.122;5.406;2023-06-04T13:56:02;4.15;;;1.48;;
72156;SDS011;60035;52.122;5.406;2023-06-04T13:58:29;3.15;;;1.05;;
72156;SDS011;60035;52.122;5.406;2023-06-04T14:00:55;5.00;;;1.27;;
72156;SDS011;60035;52.122;5.406;2023-06-04T14:03:22;4.20;;;1.38;;
72156;SDS011;60035;52.122;5.406;2023-06-04T14:05:49;4.22;;;1.10;;
72156;SDS011;60035;52.122;5.406;2023-06-04T14:08:15;3.45;;;0.90;;
72156;SDS011;60035;52.122;5.406;2023-06-04T14:10:42;4.82;;;1.17;;
72156;SDS011;60035;52.122;5.406;2023-06-04T14:13:08;3.95;;;1.33;;
72156;SDS011;60035;52.122;5.406;2023-06-04T14:15:35;3.70;;;1.13;;
72156;SDS011;60035;52.122;5.406;2023-06-04T14:18:03;4.40;;;0.95;;
72156;SDS011;60035;52.122;5.406;2023-06-04T14:20:30;3.33;;;0.93;;
72156;SDS011;60035;52.122;5.406;2023-06-04T14:22:57;4.53;;;1.00;;
72156;SDS011;60035;52.122;5.406;2023-06-04T14:25:23;5.15;;;1.20;;
72156;SDS011;60035;52.122;5.406;2023-06-04T14:27:50;4.05;;;1.40;;
72156;SDS011;60035;52.122;5.406;2023-06-04T14:30:17;2.97;;;1.15;;
72156;SDS011;60035;52.122;5.406;2023-06-04T14:32:43;6.55;;;1.55;;
72156;SDS011;60035;52.122;5.406;2023-06-04T14:35:10;4.55;;;1.30;;
72156;SDS011;60035;52.122;5.406;2023-06-04T14:37:37;6.68;;;1.15;;
72156;SDS011;60035;52.122;5.406;2023-06-04T14:40:04;3.70;;;1.20;;
72156;SDS011;60035;52.122;5.406;2023-06-04T14:42:31;3.72;;;1.05;;
72156;SDS011;60035;52.122;5.406;2023-06-04T14:44:57;3.53;;;1.13;;
72156;SDS011;60035;52.122;5.406;2023-06-04T14:47:28;4.53;;;1.30;;
72156;SDS011;60035;52.122;5.406;2023-06-04T14:49:55;5.47;;;0.93;;
72156;SDS011;60035;52.122;5.406;2023-06-04T14:52:22;5.40;;;1.13;;
72156;SDS011;60035;52.122;5.406;2023-06-04T14:54:49;5.72;;;1.23;;
72156;SDS011;60035;52.122;5.406;2023-06-04T14:57:18;6.43;;;1.50;;
72156;SDS011;60035;52.122;5.406;2023-06-04T14:59:47;4.03;;;1.00;;
72156;SDS011;60035;52.122;5.406;2023-06-04T15:02:14;4.55;;;1.00;;
72156;SDS011;60035;52.122;5.406;2023-06-04T15:04:46;5.25;;;1.23;;
72156;SDS011;60035;52.122;5.406;2023-06-04T15:07:13;4.10;;;1.05;;
72156;SDS011;60035;52.122;5.406;2023-06-04T15:09:41;2.92;;;1.13;;
72156;SDS011;60035;52.122;5.406;2023-06-04T15:12:08;6.28;;;1.27;;
72156;SDS011;60035;52.122;5.406;2023-06-04T15:14:34;4.90;;;1.10;;